sensor_id;sensor_type;location;lat;lon;timestamp;temperature;humidity
64654;DHT22;51065;48.884;12.598;2024-01-16T00:00:52;-0.80;99.90
64654;DHT22;51065;48.884;12.598;2024-01-16T00:03:18;-0.80;99.90
64654;DHT22;51065;48.884;12.598;2024-01-16T00:05:43;-0.80;99.90
64654;DHT22;51065;48.884;12.598;2024-01-16T00:08:12;-0.70;99.90
64654;DHT22;51065;48.884;12.598;2024-01-16T00:10:37;-0.70;29.10
64654;DHT22;51065;48.884;12.598;2024-01-16T00:13:03;-0.70;20.00
64654;DHT22;51065;48.884;12.598;2024-01-16T00:15:28;-0.70;43.30
64654;DHT22;51065;48.884;12.598;2024-01-16T00:17:54;-0.70;90.80
64654;DHT22;51065;48.884;12.598;2024-01-16T00:20:19;-0.70;2.30
64654;DHT22;51065;48.884;12.598;2024-01-16T00:22:45;-0.70;1.00
64654;DHT22;51065;48.884;12.598;2024-01-16T00:25:11;-0.70;1.00
64654;DHT22;51065;48.884;12.598;2024-01-16T00:27:37;-0.70;1.00
64654;DHT22;51065;48.884;12.598;2024-01-16T00:30:02;-0.70;1.00
64654;DHT22;51065;48.884;12.598;2024-01-16T00:32:28;-0.70;1.00
64654;DHT22;51065;48.884;12.598;2024-01-16T00:34:54;-0.70;1.00
64654;DHT22;51065;48.884;12.598;2024-01-16T00:37:19;-0.70;1.00
64654;DHT22;51065;48.884;12.598;2024-01-16T00:39:45;-0.70;1.00
64654;DHT22;51065;48.884;12.598;2024-01-16T00:42:10;-0.70;1.00
64654;DHT22;51065;48.884;12.598;2024-01-16T00:44:36;-0.80;1.00
64654;DHT22;51065;48.884;12.598;2024-01-16T00:47:02;-0.80;1.00
64654;DHT22;51065;48.884;12.598;2024-01-16T00:49:28;-0.80;51.50
64654;DHT22;51065;48.884;12.598;2024-01-16T00:51:54;-0.80;1.00
64654;DHT22;51065;48.884;12.598;2024-01-16T00:54:19;-0.80;1.00
64654;DHT22;51065;48.884;12.598;2024-01-16T00:56:45;-0.80;1.00
64654;DHT22;51065;48.884;12.598;2024-01-16T00:59:11;-0.80;1.00
64654;DHT22;51065;48.884;12.598;2024-01-16T01:01:39;-0.80;1.00
64654;DHT22;51065;48.884;12.598;2024-01-16T01:04:05;-0.80;1.00
64654;DHT22;51065;48.884;12.598;2024-01-16T01:06:30;-0.80;1.00
64654;DHT22;51065;48.884;12.598;2024-01-16T01:08:56;-0.90;1.00
64654;DHT22;51065;48.884;12.598;2024-01-16T01:11:22;-0.80;1.00
64654;DHT22;51065;48.884;12.598;2024-01-16T01:13:47;-0.80;1.00
64654;DHT22;51065;48.884;12.598;2024-01-16T01:16:13;-0.80;99.90
64654;DHT22;51065;48.884;12.598;2024-01-16T01:18:38;-0.70;99.90
64654;DHT22;51065;48.884;12.598;2024-01-16T01:21:04;-0.60;99.90
64654;DHT22;51065;48.884;12.598;2024-01-16T01:23:30;-0.60;99.90
64654;DHT22;51065;48.884;12.598;2024-01-16T01:25:56;-0.60;99.90
64654;DHT22;51065;48.884;12.598;2024-01-16T01:28:21;-0.60;99.90
64654;DHT22;51065;48.884;12.598;2024-01-16T01:30:47;-0.60;99.90
64654;DHT22;51065;48.884;12.598;2024-01-16T01:33:12;-0.60;99.90
64654;DHT22;51065;48.884;12.598;2024-01-16T01:35:38;-0.60;99.90
64654;DHT22;51065;48.884;12.598;2024-01-16T01:38:03;-0.60;99.90
64654;DHT22;51065;48.884;12.598;2024-01-16T01:40:29;-0.70;99.90
64654;DHT22;51065;48.884;12.598;2024-01-16T01:42:54;-0.60;99.90
64654;DHT22;51065;48.884;12.598;2024-01-16T01:45:20;-0.60;99.90
64654;DHT22;51065;48.884;12.598;2024-01-16T01:47:46;-0.60;99.90
64654;DHT22;51065;48.884;12.598;2024-01-16T01:50:13;-0.60;55.50
64654;DHT22;51065;48.884;12.598;2024-01-16T01:52:40;-0.50;1.00
64654;DHT22;51065;48.884;12.598;2024-01-16T01:55:10;-0.60;1.00
64654;DHT22;51065;48.884;12.598;2024-01-16T01:57:36;-0.50;1.00
64654;DHT22;51065;48.884;12.598;2024-01-16T02:00:01;-0.50;42.10
64654;DHT22;51065;48.884;12.598;2024-01-16T02:02:29;-0.50;49.50
64654;DHT22;51065;48.884;12.598;2024-01-16T02:04:55;-0.60;29.10
64654;DHT22;51065;48.884;12.598;2024-01-16T02:07:21;-0.60;31.70
64654;DHT22;51065;48.884;12.598;2024-01-16T02:09:47;-0.60;99.90
64654;DHT22;51065;48.884;12.598;2024-01-16T02:12:12;-0.50;42.00
64654;DHT22;51065;48.884;12.598;2024-01-16T02:14:41;-0.50;99.90
64654;DHT22;51065;48.884;12.598;2024-01-16T02:17:07;-0.60;99.90
64654;DHT22;51065;48.884;12.598;2024-01-16T02:19:32;-0.60;94.90
64654;DHT22;51065;48.884;12.598;2024-01-16T02:22:00;-0.60;99.90
64654;DHT22;51065;48.884;12.598;2024-01-16T02:24:26;-0.60;99.90
64654;DHT22;51065;48.884;12.598;2024-01-16T02:26:53;-0.60;99.90
64654;DHT22;51065;48.884;12.598;2024-01-16T02:29:18;-0.60;40.20
64654;DHT22;51065;48.884;12.598;2024-01-16T02:31:45;-0.60;8.00
64654;DHT22;51065;48.884;12.598;2024-01-16T02:34:10;-0.60;1.00
64654;DHT22;51065;48.884;12.598;2024-01-16T02:36:36;-0.50;1.00
64654;DHT22;51065;48.884;12.598;2024-01-16T02:39:01;-0.50;15.10
64654;DHT22;51065;48.884;12.598;2024-01-16T02:41:27;-0.50;1.00
64654;DHT22;51065;48.884;12.598;2024-01-16T02:43:52;-0.50;1.00
64654;DHT22;51065;48.884;12.598;2024-01-16T02:46:18;-0.50;1.00
64654;DHT22;51065;48.884;12.598;2024-01-16T02:48:44;-0.60;1.00
64654;DHT22;51065;48.884;12.598;2024-01-16T02:51:09;-0.50;1.00
64654;DHT22;51065;48.884;12.598;2024-01-16T02:53:35;-0.50;1.00
64654;DHT22;51065;48.884;12.598;2024-01-16T02:56:01;-0.60;1.00
64654;DHT22;51065;48.884;12.598;2024-01-16T02:58:27;-0.50;1.00
64654;DHT22;51065;48.884;12.598;2024-01-16T03:00:53;-0.50;1.00
64654;DHT22;51065;48.884;12.598;2024-01-16T03:03:19;-0.50;1.00
64654;DHT22;51065;48.884;12.598;2024-01-16T03:05:46;-0.50;99.90
64654;DHT22;51065;48.884;12.598;2024-01-16T03:08:11;-0.50;1.00
64654;DHT22;51065;48.884;12.598;2024-01-16T03:10:37;-0.50;99.90
64654;DHT22;51065;48.884;12.598;2024-01-16T03:13:03;-0.50;1.00
64654;DHT22;51065;48.884;12.598;2024-01-16T03:15:29;-0.50;1.00
64654;DHT22;51065;48.884;12.598;2024-01-16T03:17:56;-0.60;1.00
64654;DHT22;51065;48.884;12.598;2024-01-16T03:20:22;-0.60;1.00
64654;DHT22;51065;48.884;12.598;2024-01-16T03:22:48;-0.60;1.00
64654;DHT22;51065;48.884;12.598;2024-01-16T03:25:14;-0.60;1.00
64654;DHT22;51065;48.884;12.598;2024-01-16T03:27:40;-0.60;1.00
64654;DHT22;51065;48.884;12.598;2024-01-16T03:30:09;-0.60;1.00
64654;DHT22;51065;48.884;12.598;2024-01-16T03:32:38;-0.60;1.00
64654;DHT22;51065;48.884;12.598;2024-01-16T03:35:05;-0.60;1.00
64654;DHT22;51065;48.884;12.598;2024-01-16T03:37:31;-0.70;1.00
64654;DHT22;51065;48.884;12.598;2024-01-16T03:39:57;-0.70;1.00
64654;DHT22;51065;48.884;12.598;2024-01-16T03:42:23;-0.70;1.00
64654;DHT22;51065;48.884;12.598;2024-01-16T03:44:48;-0.70;1.00
64654;DHT22;51065;48.884;12.598;2024-01-16T03:47:15;-0.70;4.40
64654;DHT22;51065;48.884;12.598;2024-01-16T03:49:40;-0.70;1.00
64654;DHT22;51065;48.884;12.598;2024-01-16T03:52:06;-0.70;1.00
64654;DHT22;51065;48.884;12.598;2024-01-16T03:54:32;-0.70;1.00
64654;DHT22;51065;48.884;12.598;2024-01-16T03:56:57;-0.70;1.00
64654;DHT22;51065;48.884;12.598;2024-01-16T03:59:23;-0.70;1.00
64654;DHT22;51065;48.884;12.598;2024-01-16T04:01:49;-0.70;99.90
64654;DHT22;51065;48.884;12.598;2024-01-16T04:04:15;-0.70;1.00
64654;DHT22;51065;48.884;12.598;2024-01-16T04:06:41;-0.70;99.90
64654;DHT22;51065;48.884;12.598;2024-01-16T04:09:07;-0.70;1.00
64654;DHT22;51065;48.884;12.598;2024-01-16T04:11:33;-0.80;1.00
64654;DHT22;51065;48.884;12.598;2024-01-16T04:13:59;-0.70;99.90
64654;DHT22;51065;48.884;12.598;2024-01-16T04:16:25;-0.70;99.90
64654;DHT22;51065;48.884;12.598;2024-01-16T04:18:50;-0.70;99.90
64654;DHT22;51065;48.884;12.598;2024-01-16T04:21:16;-0.80;1.00
64654;DHT22;51065;48.884;12.598;2024-01-16T04:23:41;-0.80;1.00
64654;DHT22;51065;48.884;12.598;2024-01-16T04:26:07;-0.80;1.00
64654;DHT22;51065;48.884;12.598;2024-01-16T04:28:34;-0.80;99.90
64654;DHT22;51065;48.884;12.598;2024-01-16T04:31:06;-0.80;99.90
64654;DHT22;51065;48.884;12.598;2024-01-16T04:33:32;-0.80;99.90
64654;DHT22;51065;48.884;12.598;2024-01-16T04:35:57;-0.80;99.90
64654;DHT22;51065;48.884;12.598;2024-01-16T04:38:23;-0.80;99.90
64654;DHT22;51065;48.884;12.598;2024-01-16T04:40:49;-0.80;99.90
64654;DHT22;51065;48.884;12.598;2024-01-16T04:43:15;-0.80;1.00
64654;DHT22;51065;48.884;12.598;2024-01-16T04:45:41;-0.80;99.90
64654;DHT22;51065;48.884;12.598;2024-01-16T04:48:06;-0.80;99.90
64654;DHT22;51065;48.884;12.598;2024-01-16T04:50:34;-0.90;99.90
64654;DHT22;51065;48.884;12.598;2024-01-16T04:53:00;-0.90;99.90
64654;DHT22;51065;48.884;12.598;2024-01-16T04:55:27;-0.90;99.90
64654;DHT22;51065;48.884;12.598;2024-01-16T04:57:53;-0.90;99.90
64654;DHT22;51065;48.884;12.598;2024-01-16T05:00:19;-0.90;99.90
64654;DHT22;51065;48.884;12.598;2024-01-16T05:02:45;-0.90;1.00
64654;DHT22;51065;48.884;12.598;2024-01-16T05:05:12;-0.90;99.90
64654;DHT22;51065;48.884;12.598;2024-01-16T05:07:37;-0.90;1.00
64654;DHT22;51065;48.884;12.598;2024-01-16T05:10:04;-0.90;1.00
64654;DHT22;51065;48.884;12.598;2024-01-16T05:12:30;-0.90;1.00
64654;DHT22;51065;48.884;12.598;2024-01-16T05:14:55;-0.90;1.00
64654;DHT22;51065;48.884;12.598;2024-01-16T05:17:21;-0.90;1.00
64654;DHT22;51065;48.884;12.598;2024-01-16T05:19:46;-0.90;1.00
64654;DHT22;51065;48.884;12.598;2024-01-16T05:22:13;-0.90;99.90
64654;DHT22;51065;48.884;12.598;2024-01-16T05:24:38;-0.90;99.90
64654;DHT22;51065;48.884;12.598;2024-01-16T05:27:05;-0.90;99.90
64654;DHT22;51065;48.884;12.598;2024-01-16T05:29:30;-0.90;1.00
64654;DHT22;51065;48.884;12.598;2024-01-16T05:31:56;-0.90;99.90
64654;DHT22;51065;48.884;12.598;2024-01-16T05:34:22;-0.90;99.90
64654;DHT22;51065;48.884;12.598;2024-01-16T05:36:48;-0.90;99.90
64654;DHT22;51065;48.884;12.598;2024-01-16T05:39:13;-0.90;99.90
64654;DHT22;51065;48.884;12.598;2024-01-16T05:41:39;-0.90;99.90
64654;DHT22;51065;48.884;12.598;2024-01-16T05:44:04;-0.90;99.90
64654;DHT22;51065;48.884;12.598;2024-01-16T05:46:32;-0.90;99.90
64654;DHT22;51065;48.884;12.598;2024-01-16T05:48:58;-1.00;99.90
64654;DHT22;51065;48.884;12.598;2024-01-16T05:51:26;-1.00;99.90
64654;DHT22;51065;48.884;12.598;2024-01-16T05:53:52;-1.00;99.90
64654;DHT22;51065;48.884;12.598;2024-01-16T05:56:18;-1.10;99.90
64654;DHT22;51065;48.884;12.598;2024-01-16T05:58:44;-1.10;99.90
64654;DHT22;51065;48.884;12.598;2024-01-16T06:01:09;-1.10;99.90
64654;DHT22;51065;48.884;12.598;2024-01-16T06:03:38;-1.20;99.90
64654;DHT22;51065;48.884;12.598;2024-01-16T06:06:05;-1.20;99.90
64654;DHT22;51065;48.884;12.598;2024-01-16T06:08:31;-1.20;99.90
64654;DHT22;51065;48.884;12.598;2024-01-16T06:10:56;-1.20;99.90
64654;DHT22;51065;48.884;12.598;2024-01-16T06:13:22;-1.20;99.90
64654;DHT22;51065;48.884;12.598;2024-01-16T06:15:47;-1.30;99.90
64654;DHT22;51065;48.884;12.598;2024-01-16T06:18:13;-1.40;99.90
64654;DHT22;51065;48.884;12.598;2024-01-16T06:20:38;-1.40;99.90
64654;DHT22;51065;48.884;12.598;2024-01-16T06:23:04;-1.40;99.90
64654;DHT22;51065;48.884;12.598;2024-01-16T06:25:30;-1.40;99.90
64654;DHT22;51065;48.884;12.598;2024-01-16T06:27:55;-1.50;99.90
64654;DHT22;51065;48.884;12.598;2024-01-16T06:30:22;-1.50;99.90
64654;DHT22;51065;48.884;12.598;2024-01-16T06:32:48;-1.50;99.90
64654;DHT22;51065;48.884;12.598;2024-01-16T06:35:15;-1.50;99.90
64654;DHT22;51065;48.884;12.598;2024-01-16T06:37:41;-1.60;99.90
64654;DHT22;51065;48.884;12.598;2024-01-16T06:40:07;-1.60;99.90
64654;DHT22;51065;48.884;12.598;2024-01-16T06:42:33;-1.70;99.90
64654;DHT22;51065;48.884;12.598;2024-01-16T06:44:59;-1.70;99.90
64654;DHT22;51065;48.884;12.598;2024-01-16T06:47:24;-1.70;99.90
64654;DHT22;51065;48.884;12.598;2024-01-16T06:49:50;-1.70;99.90
64654;DHT22;51065;48.884;12.598;2024-01-16T06:52:15;-1.60;99.90
64654;DHT22;51065;48.884;12.598;2024-01-16T06:54:41;-1.60;99.90
64654;DHT22;51065;48.884;12.598;2024-01-16T06:57:06;-1.50;99.90
64654;DHT22;51065;48.884;12.598;2024-01-16T06:59:32;-1.50;99.90
64654;DHT22;51065;48.884;12.598;2024-01-16T07:01:57;-1.50;99.90
64654;DHT22;51065;48.884;12.598;2024-01-16T07:04:23;-1.50;99.90
64654;DHT22;51065;48.884;12.598;2024-01-16T07:06:49;-1.50;99.90
64654;DHT22;51065;48.884;12.598;2024-01-16T07:09:14;-1.50;99.90
64654;DHT22;51065;48.884;12.598;2024-01-16T07:11:41;-1.50;99.90
64654;DHT22;51065;48.884;12.598;2024-01-16T07:14:09;-1.50;99.90
64654;DHT22;51065;48.884;12.598;2024-01-16T07:16:35;-1.40;99.90
64654;DHT22;51065;48.884;12.598;2024-01-16T07:19:01;-1.40;99.90
64654;DHT22;51065;48.884;12.598;2024-01-16T07:21:27;-1.40;99.90
64654;DHT22;51065;48.884;12.598;2024-01-16T07:23:53;-1.30;99.90
64654;DHT22;51065;48.884;12.598;2024-01-16T07:26:19;-1.30;57.70
64654;DHT22;51065;48.884;12.598;2024-01-16T07:28:45;-1.30;99.90
64654;DHT22;51065;48.884;12.598;2024-01-16T07:31:13;-1.30;99.90
64654;DHT22;51065;48.884;12.598;2024-01-16T07:33:39;-1.30;36.00
64654;DHT22;51065;48.884;12.598;2024-01-16T07:36:05;-1.30;1.00
64654;DHT22;51065;48.884;12.598;2024-01-16T07:38:31;-1.20;94.10
64654;DHT22;51065;48.884;12.598;2024-01-16T07:40:57;-1.20;99.90
64654;DHT22;51065;48.884;12.598;2024-01-16T07:43:23;-1.20;1.00
64654;DHT22;51065;48.884;12.598;2024-01-16T07:45:49;-1.20;1.00
64654;DHT22;51065;48.884;12.598;2024-01-16T07:48:15;-1.20;80.30
64654;DHT22;51065;48.884;12.598;2024-01-16T07:50:40;-1.20;1.00
64654;DHT22;51065;48.884;12.598;2024-01-16T07:53:06;-1.20;1.00
64654;DHT22;51065;48.884;12.598;2024-01-16T07:55:31;-1.10;1.00
64654;DHT22;51065;48.884;12.598;2024-01-16T07:57:57;-1.10;1.00
64654;DHT22;51065;48.884;12.598;2024-01-16T08:00:22;-1.10;1.00
64654;DHT22;51065;48.884;12.598;2024-01-16T08:02:48;-1.10;1.00
64654;DHT22;51065;48.884;12.598;2024-01-16T08:05:14;-1.00;1.00
64654;DHT22;51065;48.884;12.598;2024-01-16T08:07:42;-1.00;1.00
64654;DHT22;51065;48.884;12.598;2024-01-16T08:10:08;-0.90;99.90
64654;DHT22;51065;48.884;12.598;2024-01-16T08:12:34;-0.90;99.90
64654;DHT22;51065;48.884;12.598;2024-01-16T08:15:00;-0.90;99.90
64654;DHT22;51065;48.884;12.598;2024-01-16T08:17:25;-0.80;99.90
64654;DHT22;51065;48.884;12.598;2024-01-16T08:19:51;-0.80;99.90
64654;DHT22;51065;48.884;12.598;2024-01-16T08:22:16;-0.80;99.90
64654;DHT22;51065;48.884;12.598;2024-01-16T08:24:42;-0.80;16.20
64654;DHT22;51065;48.884;12.598;2024-01-16T08:27:07;-0.70;82.20
64654;DHT22;51065;48.884;12.598;2024-01-16T08:29:33;-0.70;99.90
64654;DHT22;51065;48.884;12.598;2024-01-16T08:31:59;-0.60;99.90
64654;DHT22;51065;48.884;12.598;2024-01-16T08:34:24;-0.70;57.10
64654;DHT22;51065;48.884;12.598;2024-01-16T08:36:50;-0.60;1.00
64654;DHT22;51065;48.884;12.598;2024-01-16T08:39:16;-0.60;1.00
64654;DHT22;51065;48.884;12.598;2024-01-16T08:41:42;-0.60;1.00
64654;DHT22;51065;48.884;12.598;2024-01-16T08:44:07;-0.60;1.00
64654;DHT22;51065;48.884;12.598;2024-01-16T08:46:33;-0.50;1.00
64654;DHT22;51065;48.884;12.598;2024-01-16T08:48:58;-0.40;1.00
64654;DHT22;51065;48.884;12.598;2024-01-16T08:51:24;-0.30;99.90
64654;DHT22;51065;48.884;12.598;2024-01-16T08:53:51;-0.30;99.90
64654;DHT22;51065;48.884;12.598;2024-01-16T08:56:17;-0.40;99.90
64654;DHT22;51065;48.884;12.598;2024-01-16T08:58:43;-0.30;99.90
64654;DHT22;51065;48.884;12.598;2024-01-16T09:01:08;-0.50;1.00
64654;DHT22;51065;48.884;12.598;2024-01-16T09:03:35;-0.30;1.00
64654;DHT22;51065;48.884;12.598;2024-01-16T09:06:01;-0.20;1.00
64654;DHT22;51065;48.884;12.598;2024-01-16T09:08:28;-0.10;1.00
64654;DHT22;51065;48.884;12.598;2024-01-16T09:10:55;0.10;99.90
64654;DHT22;51065;48.884;12.598;2024-01-16T09:13:21;0.20;99.90
64654;DHT22;51065;48.884;12.598;2024-01-16T09:15:47;0.20;99.90
64654;DHT22;51065;48.884;12.598;2024-01-16T09:18:14;0.30;99.90
64654;DHT22;51065;48.884;12.598;2024-01-16T09:20:40;0.50;99.90
64654;DHT22;51065;48.884;12.598;2024-01-16T09:23:05;0.50;99.90
64654;DHT22;51065;48.884;12.598;2024-01-16T09:25:31;0.50;99.90
64654;DHT22;51065;48.884;12.598;2024-01-16T09:27:56;0.40;99.90
64654;DHT22;51065;48.884;12.598;2024-01-16T09:30:22;0.40;99.90
64654;DHT22;51065;48.884;12.598;2024-01-16T09:32:48;0.40;99.90
64654;DHT22;51065;48.884;12.598;2024-01-16T09:35:14;0.60;99.90
64654;DHT22;51065;48.884;12.598;2024-01-16T09:37:40;0.60;99.90
64654;DHT22;51065;48.884;12.598;2024-01-16T09:40:06;0.70;99.90
64654;DHT22;51065;48.884;12.598;2024-01-16T09:42:32;0.90;46.80
64654;DHT22;51065;48.884;12.598;2024-01-16T09:45:00;0.90;99.90
64654;DHT22;51065;48.884;12.598;2024-01-16T09:47:26;1.00;1.00
64654;DHT22;51065;48.884;12.598;2024-01-16T09:49:52;1.10;73.10
64654;DHT22;51065;48.884;12.598;2024-01-16T09:52:19;1.30;98.60
64654;DHT22;51065;48.884;12.598;2024-01-16T09:54:44;1.40;1.00
64654;DHT22;51065;48.884;12.598;2024-01-16T09:57:12;1.20;99.90
64654;DHT22;51065;48.884;12.598;2024-01-16T09:59:39;1.10;87.40
64654;DHT22;51065;48.884;12.598;2024-01-16T10:02:10;1.20;99.90
64654;DHT22;51065;48.884;12.598;2024-01-16T10:04:36;1.30;99.90
64654;DHT22;51065;48.884;12.598;2024-01-16T10:07:02;1.30;99.90
64654;DHT22;51065;48.884;12.598;2024-01-16T10:09:30;1.30;61.20
64654;DHT22;51065;48.884;12.598;2024-01-16T10:11:55;1.40;1.00
64654;DHT22;51065;48.884;12.598;2024-01-16T10:14:21;1.30;87.50
64654;DHT22;51065;48.884;12.598;2024-01-16T10:17:04;1.40;1.00
64654;DHT22;51065;48.884;12.598;2024-01-16T10:19:53;1.50;27.90
64654;DHT22;51065;48.884;12.598;2024-01-16T10:22:24;1.50;1.00
64654;DHT22;51065;48.884;12.598;2024-01-16T10:25:06;1.40;1.00
64654;DHT22;51065;48.884;12.598;2024-01-16T10:27:33;1.10;99.90
64654;DHT22;51065;48.884;12.598;2024-01-16T10:29:59;1.20;97.70
64654;DHT22;51065;48.884;12.598;2024-01-16T10:32:32;1.40;74.60
64654;DHT22;51065;48.884;12.598;2024-01-16T10:35:05;1.40;1.00
64654;DHT22;51065;48.884;12.598;2024-01-16T10:37:44;1.40;1.00
64654;DHT22;51065;48.884;12.598;2024-01-16T10:40:10;1.50;1.00
64654;DHT22;51065;48.884;12.598;2024-01-16T10:42:36;1.50;1.00
64654;DHT22;51065;48.884;12.598;2024-01-16T10:45:03;1.50;1.00
64654;DHT22;51065;48.884;12.598;2024-01-16T10:47:30;1.60;1.00
64654;DHT22;51065;48.884;12.598;2024-01-16T10:49:55;1.60;1.00
64654;DHT22;51065;48.884;12.598;2024-01-16T10:52:25;1.60;99.90
64654;DHT22;51065;48.884;12.598;2024-01-16T10:54:54;1.70;1.00
64654;DHT22;51065;48.884;12.598;2024-01-16T10:57:24;1.70;99.90
64654;DHT22;51065;48.884;12.598;2024-01-16T11:00:03;1.80;1.00
64654;DHT22;51065;48.884;12.598;2024-01-16T11:02:40;2.00;99.90
64654;DHT22;51065;48.884;12.598;2024-01-16T11:05:09;2.10;1.00
64654;DHT22;51065;48.884;12.598;2024-01-16T11:07:37;2.20;99.90
64654;DHT22;51065;48.884;12.598;2024-01-16T11:10:03;2.10;99.90
64654;DHT22;51065;48.884;12.598;2024-01-16T11:12:30;2.00;99.90
64654;DHT22;51065;48.884;12.598;2024-01-16T11:14:59;2.00;1.00
64654;DHT22;51065;48.884;12.598;2024-01-16T11:17:28;2.00;1.00
64654;DHT22;51065;48.884;12.598;2024-01-16T11:19:55;2.10;99.90
64654;DHT22;51065;48.884;12.598;2024-01-16T11:22:22;2.10;1.00
64654;DHT22;51065;48.884;12.598;2024-01-16T11:25:08;2.20;1.00
64654;DHT22;51065;48.884;12.598;2024-01-16T11:27:35;2.20;99.90
64654;DHT22;51065;48.884;12.598;2024-01-16T11:30:00;2.30;99.90
64654;DHT22;51065;48.884;12.598;2024-01-16T11:35:03;2.30;99.90
64654;DHT22;51065;48.884;12.598;2024-01-16T11:37:30;2.30;99.90
64654;DHT22;51065;48.884;12.598;2024-01-16T11:42:42;2.10;99.90
64654;DHT22;51065;48.884;12.598;2024-01-16T11:48:14;2.00;99.90
64654;DHT22;51065;48.884;12.598;2024-01-16T11:50:41;2.00;99.90
64654;DHT22;51065;48.884;12.598;2024-01-16T11:53:07;1.80;99.90
64654;DHT22;51065;48.884;12.598;2024-01-16T11:55:34;1.90;99.90
64654;DHT22;51065;48.884;12.598;2024-01-16T12:00:56;2.20;99.90
64654;DHT22;51065;48.884;12.598;2024-01-16T12:03:23;2.10;99.90
64654;DHT22;51065;48.884;12.598;2024-01-16T12:05:56;2.30;99.90
64654;DHT22;51065;48.884;12.598;2024-01-16T12:08:22;2.40;99.90
64654;DHT22;51065;48.884;12.598;2024-01-16T12:10:48;2.20;99.90
64654;DHT22;51065;48.884;12.598;2024-01-16T12:13:14;2.40;99.90
64654;DHT22;51065;48.884;12.598;2024-01-16T12:15:40;2.40;99.90
64654;DHT22;51065;48.884;12.598;2024-01-16T12:18:07;2.50;99.90
64654;DHT22;51065;48.884;12.598;2024-01-16T12:20:34;2.80;99.90
64654;DHT22;51065;48.884;12.598;2024-01-16T12:23:01;2.90;99.90
64654;DHT22;51065;48.884;12.598;2024-01-16T12:25:28;2.80;99.90
64654;DHT22;51065;48.884;12.598;2024-01-16T12:27:58;2.80;99.90
64654;DHT22;51065;48.884;12.598;2024-01-16T12:30:31;3.00;99.90
64654;DHT22;51065;48.884;12.598;2024-01-16T12:33:07;3.20;99.90
64654;DHT22;51065;48.884;12.598;2024-01-16T12:35:43;3.20;99.90
64654;DHT22;51065;48.884;12.598;2024-01-16T12:38:13;3.20;99.90
64654;DHT22;51065;48.884;12.598;2024-01-16T12:40:44;2.90;99.90
64654;DHT22;51065;48.884;12.598;2024-01-16T12:43:11;3.10;99.90
64654;DHT22;51065;48.884;12.598;2024-01-16T12:45:37;3.40;65.80
64654;DHT22;51065;48.884;12.598;2024-01-16T12:48:03;3.20;99.90
64654;DHT22;51065;48.884;12.598;2024-01-16T12:50:30;3.20;51.50
64654;DHT22;51065;48.884;12.598;2024-01-16T12:53:09;3.10;33.40
64654;DHT22;51065;48.884;12.598;2024-01-16T12:55:40;2.80;65.00
64654;DHT22;51065;48.884;12.598;2024-01-16T12:58:19;2.60;99.90
64654;DHT22;51065;48.884;12.598;2024-01-16T13:00:49;2.70;99.90
64654;DHT22;51065;48.884;12.598;2024-01-16T13:03:19;2.60;99.90
64654;DHT22;51065;48.884;12.598;2024-01-16T13:05:46;2.70;99.90
64654;DHT22;51065;48.884;12.598;2024-01-16T13:08:19;2.60;23.10
64654;DHT22;51065;48.884;12.598;2024-01-16T13:10:46;2.40;99.90
64654;DHT22;51065;48.884;12.598;2024-01-16T13:13:13;2.30;99.90
64654;DHT22;51065;48.884;12.598;2024-01-16T13:15:40;2.30;99.90
64654;DHT22;51065;48.884;12.598;2024-01-16T13:18:06;2.20;99.90
64654;DHT22;51065;48.884;12.598;2024-01-16T13:20:32;2.30;99.90
64654;DHT22;51065;48.884;12.598;2024-01-16T13:22:57;2.40;99.90
64654;DHT22;51065;48.884;12.598;2024-01-16T13:25:23;2.30;99.90
64654;DHT22;51065;48.884;12.598;2024-01-16T13:27:49;2.30;99.90
64654;DHT22;51065;48.884;12.598;2024-01-16T13:30:15;2.20;99.90
64654;DHT22;51065;48.884;12.598;2024-01-16T13:32:42;1.90;99.90
64654;DHT22;51065;48.884;12.598;2024-01-16T13:35:08;1.80;99.90
64654;DHT22;51065;48.884;12.598;2024-01-16T13:37:34;1.70;99.90
64654;DHT22;51065;48.884;12.598;2024-01-16T13:40:05;1.70;99.90
64654;DHT22;51065;48.884;12.598;2024-01-16T13:42:35;1.70;99.90
64654;DHT22;51065;48.884;12.598;2024-01-16T13:45:01;1.70;99.90
64654;DHT22;51065;48.884;12.598;2024-01-16T13:47:26;1.60;99.90
64654;DHT22;51065;48.884;12.598;2024-01-16T13:49:52;1.50;99.90
64654;DHT22;51065;48.884;12.598;2024-01-16T13:52:18;1.40;1.00
64654;DHT22;51065;48.884;12.598;2024-01-16T13:54:45;1.30;1.00
64654;DHT22;51065;48.884;12.598;2024-01-16T13:57:10;1.30;1.00
64654;DHT22;51065;48.884;12.598;2024-01-16T13:59:36;1.40;99.90
64654;DHT22;51065;48.884;12.598;2024-01-16T14:02:02;1.30;99.90
64654;DHT22;51065;48.884;12.598;2024-01-16T14:04:32;1.30;99.90
64654;DHT22;51065;48.884;12.598;2024-01-16T14:06:57;1.20;1.00
64654;DHT22;51065;48.884;12.598;2024-01-16T14:09:23;1.20;1.00
64654;DHT22;51065;48.884;12.598;2024-01-16T14:11:49;1.10;88.40
64654;DHT22;51065;48.884;12.598;2024-01-16T14:14:14;1.10;99.90
64654;DHT22;51065;48.884;12.598;2024-01-16T14:16:40;1.00;88.10
64654;DHT22;51065;48.884;12.598;2024-01-16T14:19:06;1.00;1.00
64654;DHT22;51065;48.884;12.598;2024-01-16T14:21:31;1.10;1.00
64654;DHT22;51065;48.884;12.598;2024-01-16T14:23:57;1.10;99.90
64654;DHT22;51065;48.884;12.598;2024-01-16T14:26:23;1.00;99.90
64654;DHT22;51065;48.884;12.598;2024-01-16T14:28:48;0.90;99.90
64654;DHT22;51065;48.884;12.598;2024-01-16T14:31:15;0.80;99.90
64654;DHT22;51065;48.884;12.598;2024-01-16T14:33:41;0.70;99.90
64654;DHT22;51065;48.884;12.598;2024-01-16T14:36:07;0.60;99.90
64654;DHT22;51065;48.884;12.598;2024-01-16T14:38:32;0.50;1.00
64654;DHT22;51065;48.884;12.598;2024-01-16T14:40:58;0.40;1.00
64654;DHT22;51065;48.884;12.598;2024-01-16T14:43:24;0.40;1.00
64654;DHT22;51065;48.884;12.598;2024-01-16T14:45:49;0.30;1.00
64654;DHT22;51065;48.884;12.598;2024-01-16T14:48:15;0.30;1.00
64654;DHT22;51065;48.884;12.598;2024-01-16T14:50:41;0.20;1.00
64654;DHT22;51065;48.884;12.598;2024-01-16T14:53:08;0.10;1.00
64654;DHT22;51065;48.884;12.598;2024-01-16T14:55:33;0.00;1.00
64654;DHT22;51065;48.884;12.598;2024-01-16T14:57:59;0.00;1.00
64654;DHT22;51065;48.884;12.598;2024-01-16T15:00:26;-0.10;99.90
64654;DHT22;51065;48.884;12.598;2024-01-16T15:02:56;-0.10;99.90
64654;DHT22;51065;48.884;12.598;2024-01-16T15:05:24;-0.20;1.00
64654;DHT22;51065;48.884;12.598;2024-01-16T15:07:50;-0.20;89.30
64654;DHT22;51065;48.884;12.598;2024-01-16T15:10:19;-0.20;67.90
64654;DHT22;51065;48.884;12.598;2024-01-16T15:12:46;-0.30;99.90
64654;DHT22;51065;48.884;12.598;2024-01-16T15:15:13;-0.30;50.10
64654;DHT22;51065;48.884;12.598;2024-01-16T15:17:39;-0.30;1.00
64654;DHT22;51065;48.884;12.598;2024-01-16T15:20:06;-0.40;51.40
64654;DHT22;51065;48.884;12.598;2024-01-16T15:22:44;-0.40;99.90
64654;DHT22;51065;48.884;12.598;2024-01-16T15:25:11;-0.40;34.80
64654;DHT22;51065;48.884;12.598;2024-01-16T15:27:39;-0.40;99.90
64654;DHT22;51065;48.884;12.598;2024-01-16T15:30:05;-0.40;99.90
64654;DHT22;51065;48.884;12.598;2024-01-16T15:32:33;-0.40;99.90
64654;DHT22;51065;48.884;12.598;2024-01-16T15:35:03;-0.50;99.90